createdAt,value
2019-05-13T00:03:28.200Z,50.00
2019-05-13T00:08:33.806Z,50.00
2019-05-13T00:13:38.350Z,50.10
2019-05-13T00:18:44.254Z,50.10
2019-05-13T00:23:48.344Z,50.10
2019-05-13T00:28:53.429Z,49.80
2019-05-13T00:33:57.518Z,49.80
2019-05-13T00:39:03.831Z,50.20
2019-05-13T00:44:07.523Z,49.90
2019-05-13T00:49:13.435Z,49.90
2019-05-13T00:54:17.671Z,49.90
2019-05-13T00:59:24.094Z,49.70
2019-05-13T01:04:28.225Z,49.90
2019-05-13T01:09:34.251Z,49.90
2019-05-13T01:14:38.740Z,49.90
2019-05-13T01:19:43.384Z,50.00
2019-05-13T01:24:47.606Z,49.80
2019-05-13T01:29:53.441Z,50.00
2019-05-13T01:34:57.135Z,49.90
2019-05-13T01:40:01.401Z,49.80
2019-05-13T01:45:05.667Z,49.80
2019-05-13T01:50:09.935Z,49.80
2019-05-13T01:55:14.683Z,49.90
2019-05-13T02:00:19.450Z,49.70
2019-05-13T02:05:24.247Z,49.80
2019-05-13T02:10:56.739Z,49.70
2019-05-13T02:16:00.983Z,49.30
2019-05-13T02:21:05.644Z,49.80
2019-05-13T02:26:09.632Z,49.60
2019-05-13T02:31:21.217Z,49.70
2019-05-13T02:36:22.543Z,49.70
2019-05-13T02:41:24.764Z,49.90
2019-05-13T02:46:28.708Z,49.60
2019-05-13T02:51:32.960Z,49.60
2019-05-13T02:56:36.967Z,49.80
2019-05-13T03:01:43.229Z,49.50
2019-05-13T03:06:47.121Z,49.40
2019-05-13T03:11:53.530Z,49.60
2019-05-13T03:17:22.347Z,49.70
2019-05-13T03:22:25.398Z,49.40
2019-05-13T03:27:33.291Z,49.50
2019-05-13T03:32:43.587Z,49.40
2019-05-13T03:37:42.383Z,50.20
2019-05-13T03:42:48.959Z,49.50
2019-05-13T03:47:54.996Z,49.60
2019-05-13T03:53:02.666Z,49.60
2019-05-13T03:58:04.674Z,49.20
2019-05-13T04:03:08.671Z,49.30
2019-05-13T04:08:13.330Z,49.40
2019-05-13T04:13:17.364Z,49.40
2019-05-13T04:18:23.421Z,49.70
2019-05-13T04:23:27.873Z,49.30
2019-05-13T04:28:33.250Z,49.40
2019-05-13T04:33:37.775Z,49.30
2019-05-13T04:38:44.105Z,49.40
2019-05-13T04:43:47.783Z,49.50
2019-05-13T04:48:53.021Z,49.50
2019-05-13T04:53:57.755Z,49.40
2019-05-13T04:59:03.034Z,49.60
2019-05-13T05:04:30.558Z,49.60
2019-05-13T05:15:37.170Z,49.60
2019-05-13T05:20:48.663Z,49.80
2019-05-13T05:26:02.315Z,49.80
2019-05-13T05:31:37.011Z,49.90
2019-05-13T05:37:38.008Z,49.90
2019-05-13T05:42:44.219Z,50.40
2019-05-13T05:47:51.598Z,50.00
2019-05-13T05:52:57.215Z,50.10
2019-05-13T05:58:02.922Z,50.10
2019-05-13T06:03:06.928Z,50.30
2019-05-13T06:08:11.499Z,50.50
2019-05-13T06:13:15.848Z,50.20
2019-05-13T06:18:22.257Z,50.40
2019-05-13T06:23:26.259Z,50.60
2019-05-13T06:28:32.234Z,50.70
2019-05-13T06:33:35.795Z,50.50
2019-05-13T06:38:42.484Z,50.70
2019-05-13T06:43:45.842Z,50.60
2019-05-13T06:48:52.029Z,50.80
2019-05-13T06:53:56.151Z,50.60
2019-05-13T06:59:01.494Z,51.00
2019-05-13T07:04:05.950Z,50.70
2019-05-13T07:09:11.865Z,51.00
2019-05-13T07:14:15.647Z,51.00
2019-05-13T07:19:19.816Z,50.80
2019-05-13T07:24:23.734Z,51.00
2019-05-13T07:29:27.716Z,50.80
2019-05-13T07:34:33.742Z,50.80
2019-05-13T07:39:38.145Z,50.70
2019-05-13T07:44:42.284Z,50.90
2019-05-13T07:49:46.711Z,50.70
2019-05-13T07:54:52.054Z,50.50
2019-05-13T07:59:56.039Z,50.40
2019-05-13T08:05:02.468Z,50.00
2019-05-13T08:10:06.722Z,49.90
2019-05-13T08:15:11.899Z,49.90
2019-05-13T08:20:16.132Z,49.40
2019-05-13T08:25:22.281Z,48.90
2019-05-13T08:30:26.215Z,48.90
2019-05-13T08:35:31.471Z,48.90
2019-05-13T08:40:35.808Z,48.70
2019-05-13T08:45:42.090Z,48.70
2019-05-13T08:50:45.914Z,48.90
2019-05-13T08:55:51.740Z,48.90
2019-05-13T09:00:58.959Z,49.20
2019-05-13T09:06:03.040Z,48.70
2019-05-13T09:11:07.968Z,48.80
2019-05-13T09:16:13.349Z,48.80
2019-05-13T09:21:18.017Z,48.60
2019-05-13T09:26:22.582Z,48.50
2019-05-13T09:31:26.727Z,48.50
2019-05-13T09:36:32.364Z,48.80
2019-05-13T09:41:40.906Z,48.60
2019-05-13T09:46:42.662Z,48.50
2019-05-13T09:51:47.054Z,48.40
2019-05-13T09:56:51.853Z,47.90
2019-05-13T10:01:56.076Z,47.60
2019-05-13T10:07:02.102Z,47.70
2019-05-13T10:12:06.108Z,47.80
2019-05-13T10:17:12.771Z,47.90
2019-05-13T10:22:16.344Z,48.00
2019-05-13T10:27:22.281Z,47.40
2019-05-13T10:32:27.098Z,47.50
2019-05-13T10:37:31.612Z,47.40
2019-05-13T10:42:35.868Z,47.20
2019-05-13T10:47:42.138Z,46.40
2019-05-13T10:52:45.290Z,47.30
2019-05-13T10:57:51.393Z,46.40
2019-05-13T11:02:55.267Z,46.00
2019-05-13T11:08:01.663Z,45.80
2019-05-13T11:13:06.054Z,45.70
2019-05-13T11:18:18.988Z,45.00
2019-05-13T11:23:17.507Z,44.70
2019-05-13T11:28:21.434Z,44.20
2019-05-13T11:33:25.275Z,44.70
2019-05-13T11:38:32.426Z,44.80
2019-05-13T11:43:35.464Z,45.50
2019-05-13T11:48:41.820Z,44.80
2019-05-13T11:53:45.244Z,45.00
2019-05-13T11:58:53.144Z,44.90
2019-05-13T12:03:55.139Z,45.50
2019-05-13T12:09:02.788Z,44.50
2019-05-13T12:14:05.314Z,45.00
2019-05-13T12:19:11.866Z,45.50
2019-05-13T12:24:15.375Z,45.10
2019-05-13T12:29:19.520Z,44.10
2019-05-13T12:34:23.766Z,43.80
2019-05-13T12:39:27.682Z,43.20
2019-05-13T12:44:31.694Z,43.60
2019-05-13T12:49:36.746Z,43.50
2019-05-13T12:54:43.720Z,44.20
2019-05-13T12:59:47.042Z,43.00
2019-05-13T13:05:08.733Z,43.80
2019-05-13T13:09:57.182Z,43.40
2019-05-13T13:15:20.295Z,42.80
2019-05-13T13:20:09.695Z,42.90
2019-05-13T13:25:15.950Z,42.40
2019-05-13T13:30:20.318Z,42.10
2019-05-13T13:35:25.182Z,42.40
2019-05-13T13:40:34.221Z,43.10
2019-05-13T13:46:06.142Z,44.20
2019-05-13T13:50:44.384Z,42.90
2019-05-13T13:55:47.020Z,42.20
2019-05-13T14:01:05.519Z,41.90
2019-05-13T14:05:57.144Z,41.80
2019-05-13T14:11:02.099Z,40.90
2019-05-13T14:16:21.498Z,41.70
2019-05-13T14:21:12.111Z,42.00
2019-05-13T14:26:16.343Z,41.60
2019-05-13T14:31:21.392Z,41.90
2019-05-13T14:36:25.907Z,42.00
2019-05-13T14:41:31.268Z,41.20
2019-05-13T14:46:46.263Z,40.90
2019-05-13T14:51:41.679Z,40.40
2019-05-13T14:56:46.007Z,39.40
2019-05-13T15:01:51.881Z,36.90
2019-05-13T15:06:56.010Z,36.30
2019-05-13T15:12:02.025Z,36.10
2019-05-13T15:17:07.572Z,36.00
2019-05-13T15:22:15.554Z,36.20
2019-05-13T15:27:17.671Z,38.90
2019-05-13T15:32:21.906Z,40.20
2019-05-13T15:37:26.643Z,39.20
2019-05-13T15:42:31.936Z,38.00
2019-05-13T15:47:36.055Z,37.20
2019-05-13T15:52:42.924Z,36.80
2019-05-13T15:57:45.769Z,37.00
2019-05-13T16:02:52.083Z,36.70
2019-05-13T16:07:55.932Z,34.20
2019-05-13T16:13:01.744Z,33.70
2019-05-13T16:18:05.812Z,34.10
2019-05-13T16:23:12.165Z,34.30
2019-05-13T16:28:15.978Z,33.80
2019-05-13T16:33:20.276Z,34.40
2019-05-13T16:38:24.502Z,34.70
2019-05-13T16:43:28.755Z,36.10
2019-05-13T16:48:32.903Z,38.30
2019-05-13T16:53:36.751Z,37.20
2019-05-13T16:58:41.757Z,37.10
2019-05-13T17:03:46.184Z,38.20
2019-05-13T17:08:51.624Z,37.20
2019-05-13T17:13:56.201Z,37.00
2019-05-13T17:19:01.414Z,36.80
2019-05-13T17:24:05.605Z,36.90
2019-05-13T17:29:11.776Z,36.80
2019-05-13T17:34:15.322Z,37.50
2019-05-13T17:39:21.343Z,37.50
2019-05-13T17:44:25.270Z,37.90
2019-05-13T17:49:31.824Z,37.90
2019-05-13T17:54:35.942Z,38.00
2019-05-13T17:59:41.816Z,37.90
2019-05-13T18:04:45.843Z,37.70
2019-05-13T18:09:51.985Z,38.50
2019-05-13T18:14:55.899Z,38.40
2019-05-13T18:20:02.416Z,38.40
2019-05-13T18:25:05.839Z,38.60
2019-05-13T18:30:11.560Z,38.70
2019-05-13T18:35:16.316Z,39.30
2019-05-13T18:40:21.935Z,39.10
2019-05-13T18:45:26.527Z,39.10
2019-05-13T18:50:31.377Z,39.00
2019-05-13T18:55:35.479Z,39.40
2019-05-13T19:00:41.471Z,39.40
2019-05-13T19:05:45.307Z,39.50
2019-05-13T19:10:49.467Z,40.10
2019-05-13T19:15:53.659Z,40.20
2019-05-13T19:20:57.853Z,40.60
2019-05-13T19:26:02.102Z,40.40
2019-05-13T19:31:06.676Z,40.50
2019-05-13T19:36:11.800Z,40.70
2019-05-13T19:41:18.994Z,41.00
2019-05-13T19:46:21.459Z,40.70
2019-05-13T19:51:28.206Z,40.90
2019-05-13T19:56:31.991Z,41.00
2019-05-13T20:01:36.378Z,41.20
2019-05-13T20:06:41.471Z,41.30
2019-05-13T20:11:45.890Z,41.40
2019-05-13T20:16:52.461Z,41.70
2019-05-13T20:21:56.271Z,41.70
2019-05-13T20:27:01.707Z,42.30
2019-05-13T20:32:05.734Z,42.40
2019-05-13T20:37:12.255Z,42.70
2019-05-13T20:42:16.791Z,43.00
2019-05-13T20:47:21.343Z,43.00
2019-05-13T20:52:25.631Z,43.40
2019-05-13T20:57:29.478Z,43.10
2019-05-13T21:02:33.622Z,43.20
2019-05-13T21:07:37.879Z,43.40
2019-05-13T21:12:42.620Z,43.40
2019-05-13T21:17:46.836Z,43.70
2019-05-13T21:22:51.716Z,43.40
2019-05-13T21:27:56.030Z,43.40
2019-05-13T21:33:02.115Z,43.50
2019-05-13T21:38:06.124Z,43.70
2019-05-13T21:43:10.038Z,43.80
2019-05-13T21:48:14.615Z,44.10
2019-05-13T21:53:21.735Z,44.10
2019-05-13T21:58:24.902Z,44.00
2019-05-13T22:03:33.138Z,44.20
2019-05-13T22:08:34.522Z,44.20
2019-05-13T22:13:38.374Z,44.20
2019-05-13T22:18:42.559Z,44.60
2019-05-13T22:23:46.563Z,44.30
2019-05-13T22:28:51.218Z,44.40
2019-05-13T22:33:55.987Z,44.70
2019-05-13T22:39:01.971Z,44.80
2019-05-13T22:44:05.803Z,44.80
2019-05-13T22:49:11.601Z,45.10
2019-05-13T22:54:15.767Z,45.20
2019-05-13T22:59:21.488Z,45.60
2019-05-13T23:04:26.095Z,44.90
2019-05-13T23:09:32.216Z,45.90
2019-05-13T23:14:36.003Z,45.10
2019-05-13T23:19:41.492Z,44.90
2019-05-13T23:24:45.446Z,44.90
2019-05-13T23:29:51.702Z,45.00
2019-05-13T23:34:56.091Z,45.20
2019-05-13T23:40:01.451Z,45.00
2019-05-13T23:45:05.991Z,45.20
2019-05-13T23:50:12.481Z,45.30
2019-05-13T23:55:16.578Z,45.10
